M I D A S
Marine Information and Data Acquisition System
Tripno 216 of the Zeeleeuw from 2002-02-13 08:35:00 to 2002-02-13 15:01:13
Back to CruiseResearch ActivitiesStationsMapUnderway DataData graphs

EquipmentUnitsComments
TimeDGPSUTC
LatitudeDGPSDM.mWGS84
LongitudeDGPSDM.mWGS84
SpeedMeteo Stationm/sRelative wind speed
DirectionMeteo StationdegRelative wind direction
TemperatureMeteo Stationdeg CelciusAir temperature
PressureMeteo StationPaAtmospheric pressure
HumidityMeteo Station%Relative humidity
Missing or incorrect values are displayed as -999
Metereological data collected by the RV Zeeleeuw from 2002-02-13 08:35:00 to 2002-02-13 15:01:13
                                                                                    Next 1000 lines
Time Latitude Longitude Speed Direction Temperature Pressure Humidity
2002-02-13 10:03:46 51°8.332 2°33.993 0.7 228 9.1 101620 89
2002-02-13 10:03:50 51°8.332 2°33.994 0.7 229 9.1 101620 89
2002-02-13 10:03:54 51°8.332 2°33.995 1 218 9.1 101620 89
2002-02-13 10:04:00 51°8.333 2°33.997 1.1 243 9.1 101620 89
2002-02-13 10:04:05 51°8.333 2°33.998 0.8 226 9.1 101620 89
2002-02-13 10:04:09 51°8.334 2°33.999 0.9 226 9.1 101620 89
2002-02-13 10:04:14 51°8.334 2°34.001 0.9 201 9.1 101620 89
2002-02-13 10:04:20 51°8.334 2°34.002 1.5 230 9.1 101620 89
2002-02-13 10:04:24 51°8.335 2°34.003 1.4 231 9.1 101620 89
2002-02-13 10:04:30 51°8.335 2°34.004 1 234 9.1 101620 89
2002-02-13 10:04:36 51°8.336 2°34.006 1.2 212 9.1 101620 89
2002-02-13 10:04:40 51°8.336 2°34.007 1.2 213 9.1 101620 89
2002-02-13 10:04:45 51°8.337 2°34.008 1.6 220 9.1 101620 89
2002-02-13 10:04:50 51°8.337 2°34.009 3.1 205 9.1 101620 89
2002-02-13 10:04:55 51°8.338 2°34.01 2.4 232 9.1 101620 89
2002-02-13 10:05:00 51°8.339 2°34.011 2 228 9.1 101620 89
2002-02-13 10:05:05 51°8.34 2°34.011 2.6 204 9.1 101620 89
2002-02-13 10:05:10 51°8.34 2°34.012 3.3 199 9.1 101620 89
2002-02-13 10:05:15 51°8.342 2°34.013 3.3 200 9.2 101620 89
2002-02-13 10:05:20 51°8.344 2°34.014 4.2 187 9.2 101620 89
2002-02-13 10:05:25 51°8.347 2°34.015 4.3 187 9.1 101630 89
2002-02-13 10:05:30 51°8.351 2°34.014 5.1 173 9.1 101630 89
2002-02-13 10:05:34 51°8.355 2°34.014 5.4 162 9.2 101620 89
2002-02-13 10:05:40 51°8.361 2°34.011 5.4 162 9.2 101620 89
2002-02-13 10:05:45 51°8.367 2°34.009 5.5 162 9.1 101620 89
2002-02-13 10:05:50 51°8.373 2°34.006 6.5 162 9.1 101620 89
2002-02-13 10:05:53 51°8.378 2°34.004 6.3 162 9.1 101620 89
2002-02-13 10:05:59 51°8.388 2°34.002 6.9 161 9.1 101620 89
2002-02-13 10:06:05 51°8.401 2°34 6.7 162 9.2 101620 89
2002-02-13 10:06:09 51°8.411 2°33.999 7.5 160 9.2 101620 89
2002-02-13 10:06:15 51°8.427 2°33.998 8.9 157 9.1 101610 89
2002-02-13 10:06:19 51°8.438 2°33.998 9.1 153 9.1 101610 89
2002-02-13 10:06:24 51°8.452 2°33.997 8.3 155 9.1 101620 89
2002-02-13 10:06:29 51°8.468 2°33.995 9.6 153 9.1 101620 89
2002-02-13 10:06:34 51°8.484 2°33.992 9.8 152 9.2 101610 89
2002-02-13 10:06:40 51°8.503 2°33.987 10 150 9.2 101610 89
2002-02-13 10:06:45 51°8.52 2°33.983 8.8 149 9.1 101610 89
2002-02-13 10:06:50 51°8.536 2°33.978 9 147 9.1 101610 89
2002-02-13 10:06:55 51°8.553 2°33.971 9.8 146 9.1 101610 89
2002-02-13 10:07:00 51°8.569 2°33.962 10.5 145 9.1 101610 89
2002-02-13 10:07:05 51°8.586 2°33.95 9.8 144 9.2 101600 89
2002-02-13 10:07:10 51°8.601 2°33.938 10.5 145 9.2 101600 89
2002-02-13 10:07:15 51°8.618 2°33.926 9.8 146 9.2 101610 89
2002-02-13 10:07:20 51°8.634 2°33.914 9.8 148 9.2 101610 89
2002-02-13 10:07:25 51°8.651 2°33.904 9.6 149 9.2 101610 89
2002-02-13 10:07:30 51°8.668 2°33.896 9.4 149 9.2 101610 89
2002-02-13 10:07:35 51°8.686 2°33.89 9.8 149 9.2 101600 89
2002-02-13 10:07:40 51°8.703 2°33.886 9.2 149 9.2 101600 89
2002-02-13 10:07:44 51°8.717 2°33.883 9.5 151 9.2 101610 89
2002-02-13 10:07:58 51°8.763 2°33.876 8.8 151 -999 -999 -999
2002-02-13 10:08:02 51°8.776 2°33.875 9 151 9.2 101610 89
2002-02-13 10:08:08 51°8.796 2°33.874 9.3 150 9.2 101610 89
2002-02-13 10:08:13 51°8.812 2°33.874 8.7 149 9.2 101600 89
2002-02-13 10:08:17 51°8.825 2°33.874 9.2 149 9.2 101600 89
2002-02-13 10:08:23 51°8.845 2°33.875 8.8 147 9.2 101610 89
2002-02-13 10:08:28 51°8.86 2°33.877 8.2 146 9.2 101610 89
2002-02-13 10:08:33 51°8.874 2°33.879 8.6 148 9.2 101610 89
2002-02-13 10:08:38 51°8.888 2°33.881 8 150 9.2 101610 89
2002-02-13 10:08:42 51°8.897 2°33.884 7 150 9.2 101610 89
2002-02-13 10:08:47 51°8.908 2°33.887 7.2 151 9.2 101610 89
2002-02-13 10:08:53 51°8.921 2°33.89 7.3 155 9.2 101610 89
2002-02-13 10:08:58 51°8.931 2°33.893 6.5 153 9.2 101610 89
2002-02-13 10:09:02 51°8.938 2°33.896 6.4 153 9.2 101610 89
2002-02-13 10:09:08 51°8.948 2°33.9 6.2 158 9.2 101610 89
2002-02-13 10:09:12 51°8.954 2°33.904 6.5 157 9.2 101610 89
2002-02-13 10:09:17 51°8.961 2°33.907 5.9 160 9.2 101610 89
2002-02-13 10:09:22 51°8.968 2°33.912 5.8 163 9.2 101610 89
2002-02-13 10:09:28 51°8.975 2°33.916 5.3 169 9.2 101610 89
2002-02-13 10:09:33 51°8.98 2°33.92 4.6 178 9.1 101610 89
2002-02-13 10:09:38 51°8.983 2°33.923 4 178 9.1 101610 89
2002-02-13 10:09:44 51°8.985 2°33.926 3.8 194 9.1 101610 89
2002-02-13 10:09:48 51°8.986 2°33.927 4 205 9.1 101610 89
2002-02-13 10:09:54 51°8.986 2°33.927 3.5 214 9.1 101620 88
2002-02-13 10:09:58 51°8.986 2°33.927 3.2 212 9.1 101620 88
2002-02-13 10:10:03 51°8.986 2°33.928 2.1 218 9.1 101610 88
2002-02-13 10:10:08 51°8.986 2°33.929 3.4 202 9.1 101610 88
2002-02-13 10:10:13 51°8.986 2°33.931 2.4 217 9 101620 88
2002-02-13 10:10:18 51°8.986 2°33.934 2.6 209 9 101620 88
2002-02-13 10:10:22 51°8.986 2°33.936 3.4 207 9 101620 88
2002-02-13 10:10:27 51°8.986 2°33.938 2.9 210 9 101620 88
2002-02-13 10:10:33 51°8.985 2°33.941 3.2 220 9 101620 88
2002-02-13 10:10:38 51°8.985 2°33.943 1.8 219 9 101620 88
2002-02-13 10:10:42 51°8.985 2°33.945 1.7 236 9 101620 88
2002-02-13 10:10:48 51°8.984 2°33.948 1.8 210 9 101620 88
2002-02-13 10:10:53 51°8.984 2°33.95 1.7 209 9 101620 88
2002-02-13 10:10:58 51°8.983 2°33.952 2.9 223 9 101620 88
2002-02-13 10:11:03 51°8.982 2°33.954 3.1 218 9 101620 88
2002-02-13 10:11:08 51°8.982 2°33.956 2.5 220 9 101620 88
2002-02-13 10:11:12 51°8.982 2°33.958 2.5 212 8.9 101620 88
2002-02-13 10:11:18 51°8.981 2°33.96 3.1 208 8.9 101620 88
2002-02-13 10:11:22 51°8.98 2°33.962 3 207 8.9 101620 88
2002-02-13 10:11:28 51°8.98 2°33.965 3.5 217 8.9 101620 88
2002-02-13 10:11:32 51°8.98 2°33.966 3.3 211 8.9 101620 88
2002-02-13 10:11:38 51°8.979 2°33.969 3.5 207 8.9 101620 88
2002-02-13 10:11:42 51°8.979 2°33.97 3 211 8.9 101620 88
2002-02-13 10:11:47 51°8.978 2°33.972 3 202 8.9 101620 88
2002-02-13 10:11:53 51°8.978 2°33.975 3.6 202 8.9 101620 88
2002-02-13 10:11:58 51°8.977 2°33.977 2.9 208 8.9 101620 88
2002-02-13 10:12:03 51°8.977 2°33.979 3.3 204 8.9 101620 88
2002-02-13 10:12:08 51°8.977 2°33.981 2.8 213 8.9 101620 88
2002-02-13 10:12:13 51°8.976 2°33.983 2.8 207 8.9 101630 88
2002-02-13 10:12:17 51°8.976 2°33.985 3.4 210 8.9 101630 88
2002-02-13 10:12:22 51°8.976 2°33.987 3 208 8.9 101620 88
2002-02-13 10:12:27 51°8.976 2°33.989 3.6 220 8.9 101620 88
2002-02-13 10:12:33 51°8.975 2°33.992 3.3 212 8.9 101620 88
2002-02-13 10:12:38 51°8.975 2°33.994 3.1 202 8.9 101620 88
2002-02-13 10:12:43 51°8.974 2°33.996 3.2 202 8.9 101620 88
2002-02-13 10:12:48 51°8.974 2°33.998 2.8 205 8.9 101620 88
2002-02-13 10:12:54 51°8.974 2°34 3.5 208 8.9 101630 88
2002-02-13 10:12:58 51°8.973 2°34.001 3 214 8.9 101630 88
2002-02-13 10:13:04 51°8.973 2°34.004 3.5 205 8.9 101630 88
2002-02-13 10:13:08 51°8.973 2°34.005 3.1 207 8.9 101630 88
2002-02-13 10:13:14 51°8.972 2°34.007 3.2 205 8.9 101630 88
2002-02-13 10:13:18 51°8.972 2°34.008 3 218 8.9 101630 88
2002-02-13 10:13:23 51°8.972 2°34.01 2.8 222 8.9 101630 88
2002-02-13 10:13:28 51°8.971 2°34.012 2.4 210 8.9 101630 88
2002-02-13 10:13:33 51°8.971 2°34.014 2.7 206 8.9 101630 88
2002-02-13 10:13:37 51°8.971 2°34.015 3.4 203 8.9 101630 88
2002-02-13 10:13:43 51°8.97 2°34.017 2.9 198 8.9 101630 88
2002-02-13 10:13:48 51°8.97 2°34.018 2.6 210 8.9 101630 88
2002-02-13 10:13:52 51°8.97 2°34.02 2.4 211 8.9 101630 88
2002-02-13 10:13:57 51°8.97 2°34.021 2.2 216 8.9 101630 88
2002-02-13 10:14:02 51°8.969 2°34.023 2.9 208 8.9 101630 88
2002-02-13 10:14:08 51°8.968 2°34.025 2.2 222 8.9 101630 88
2002-02-13 10:14:12 51°8.968 2°34.026 1.8 208 8.9 101630 88
2002-02-13 10:14:18 51°8.968 2°34.027 2.7 211 8.9 101630 88
2002-02-13 10:14:23 51°8.967 2°34.029 1.9 217 8.9 101630 88
2002-02-13 10:14:28 51°8.967 2°34.03 2.7 221 8.9 101630 88
2002-02-13 10:14:33 51°8.967 2°34.032 1.9 222 8.9 101630 88
2002-02-13 10:14:38 51°8.966 2°34.033 2.7 208 8.9 101630 88
2002-02-13 10:14:42 51°8.966 2°34.034 2.5 210 8.9 101630 88
2002-02-13 10:14:48 51°8.965 2°34.036 2 220 8.9 101630 88
2002-02-13 10:14:52 51°8.965 2°34.037 2.4 208 8.9 101630 88
2002-02-13 10:14:58 51°8.964 2°34.038 1.7 230 8.9 101630 88
2002-02-13 10:15:02 51°8.964 2°34.039 1.5 213 8.9 101630 88
2002-02-13 10:15:08 51°8.963 2°34.041 1.3 241 8.9 101630 88
2002-02-13 10:15:14 51°8.963 2°34.042 1.6 230 8.9 101630 88
2002-02-13 10:15:18 51°8.962 2°34.043 1.6 225 8.9 101630 88
2002-02-13 10:15:22 51°8.962 2°34.044 1.6 232 8.9 101630 88
2002-02-13 10:15:27 51°8.962 2°34.046 1.7 217 8.9 101630 88
2002-02-13 10:15:32 51°8.961 2°34.047 2.2 221 8.9 101630 88
2002-02-13 10:15:37 51°8.961 2°34.048 2.3 207 8.9 101630 88
2002-02-13 10:15:42 51°8.96 2°34.05 2.1 204 8.9 101630 88
2002-02-13 10:15:48 51°8.961 2°34.054 3.5 201 8.9 101630 88
2002-02-13 10:15:52 51°8.961 2°34.058 3.7 201 8.9 101630 88
2002-02-13 10:15:58 51°8.962 2°34.066 3.6 187 8.9 101630 88
2002-02-13 10:16:04 51°8.965 2°34.077 4.7 185 8.9 101630 88
2002-02-13 10:16:08 51°8.968 2°34.084 4.7 177 8.9 101630 88
2002-02-13 10:16:14 51°8.973 2°34.096 6 174 8.9 101630 88
2002-02-13 10:16:18 51°8.978 2°34.104 6.3 168 8.9 101630 88
2002-02-13 10:16:24 51°8.986 2°34.116 6.9 166 9 101630 88
2002-02-13 10:16:28 51°8.993 2°34.122 7.1 157 9 101630 88
2002-02-13 10:16:32 51°9 2°34.129 7.2 157 9 101620 88
2002-02-13 10:16:38 51°9.011 2°34.136 7.3 153 9 101620 88
2002-02-13 10:16:42 51°9.02 2°34.14 8.1 150 9 101620 88
2002-02-13 10:16:48 51°9.033 2°34.142 8.2 149 9 101620 88
2002-02-13 10:16:52 51°9.042 2°34.143 7.6 145 9 101620 88
2002-02-13 10:16:58 51°9.056 2°34.141 7.3 143 9 101620 88
2002-02-13 10:17:02 51°9.065 2°34.138 7.4 141 9 101620 88
2002-02-13 10:17:08 51°9.079 2°34.131 7.8 137 9 101620 88
2002-02-13 10:17:13 51°9.09 2°34.122 8.5 138 9 101620 88
2002-02-13 10:17:17 51°9.099 2°34.114 8.3 136 9 101620 88
2002-02-13 10:17:22 51°9.109 2°34.103 7.8 135 9 101610 88
2002-02-13 10:17:28 51°9.12 2°34.086 7.9 128 9 101610 88
2002-02-13 10:17:32 51°9.127 2°34.073 8.5 127 9 101620 87
2002-02-13 10:17:38 51°9.135 2°34.052 7.6 127 9 101620 87
2002-02-13 10:17:42 51°9.14 2°34.037 8.5 124 9 101620 87
2002-02-13 10:17:48 51°9.146 2°34.013 7.1 122 9 101620 87
2002-02-13 10:17:52 51°9.149 2°33.996 7.2 122 9 101610 87
2002-02-13 10:17:58 51°9.151 2°33.97 7.8 117 9 101610 87
2002-02-13 10:18:02 51°9.152 2°33.953 7.7 112 9 101610 87
2002-02-13 10:18:08 51°9.15 2°33.927 7.2 110 9 101610 87
2002-02-13 10:18:12 51°9.148 2°33.909 7.3 112 9 101620 87
2002-02-13 10:18:18 51°9.143 2°33.884 6.2 108 9 101620 87
2002-02-13 10:18:22 51°9.139 2°33.867 6.5 112 9 101610 87
2002-02-13 10:18:26 51°9.134 2°33.851 6.4 109 9 101610 87
2002-02-13 10:18:32 51°9.126 2°33.827 5.7 110 9 101610 87
2002-02-13 10:18:38 51°9.116 2°33.803 5.8 110 9 101610 87
2002-02-13 10:18:42 51°9.11 2°33.787 6 114 9 101610 87
2002-02-13 10:18:47 51°9.102 2°33.766 6.8 109 9 101610 87
2002-02-13 10:18:53 51°9.092 2°33.742 6.7 110 9 101620 87
2002-02-13 10:18:58 51°9.084 2°33.722 6.6 109 9 101620 87
2002-02-13 10:19:03 51°9.075 2°33.701 6.7 108 9 101620 87
2002-02-13 10:19:08 51°9.067 2°33.681 6 111 9 101620 87
2002-02-13 10:19:12 51°9.061 2°33.664 6.8 110 9 101610 87
2002-02-13 10:19:18 51°9.05 2°33.639 6.6 106 9 101610 87
2002-02-13 10:19:22 51°9.044 2°33.623 5.8 116 9 101620 87
2002-02-13 10:19:28 51°9.033 2°33.598 6.1 110 9 101620 87
2002-02-13 10:19:32 51°9.027 2°33.58 6.9 111 9 101620 87
2002-02-13 10:19:37 51°9.019 2°33.559 7.3 105 9 101620 87
2002-02-13 10:19:44 51°9.009 2°33.528 6.8 111 9 101610 87
2002-02-13 10:19:48 51°9.003 2°33.511 7.3 109 9 101610 87
2002-02-13 10:19:52 51°8.998 2°33.493 7.1 111 9 101620 87
2002-02-13 10:19:58 51°8.989 2°33.467 6.6 108 9 101620 87
2002-02-13 10:20:02 51°8.983 2°33.449 7.1 110 9 101620 87
2002-02-13 10:20:08 51°8.974 2°33.423 6.3 112 9 101620 87
2002-02-13 10:20:12 51°8.968 2°33.405 7.3 111 9 101620 87
2002-02-13 10:20:18 51°8.958 2°33.379 6.7 108 9 101620 87
2002-02-13 10:20:22 51°8.952 2°33.362 6.4 113 8.9 101610 86
2002-02-13 10:20:28 51°8.942 2°33.336 6.9 108 8.9 101610 86
2002-02-13 10:20:32 51°8.935 2°33.32 6.9 110 9 101610 86
2002-02-13 10:20:38 51°8.925 2°33.294 6 114 9 101610 86
2002-02-13 10:20:42 51°8.919 2°33.278 7.1 112 9 101610 86
2002-02-13 10:20:49 51°8.908 2°33.247 6.4 111 9 101610 86
2002-02-13 10:20:54 51°8.9 2°33.226 6.8 111 9 101620 86
2002-02-13 10:20:59 51°8.892 2°33.204 6.7 116 9 101620 86
2002-02-13 10:21:02 51°8.887 2°33.191 6.5 109 9 101610 87
2002-02-13 10:21:09 51°8.876 2°33.161 6.4 113 9 101610 87
2002-02-13 10:21:13 51°8.869 2°33.144 6.3 111 9 101610 86
2002-02-13 10:21:18 51°8.862 2°33.123 6.7 115 9 101610 86
2002-02-13 10:21:23 51°8.854 2°33.101 7.1 107 9 101610 86
2002-02-13 10:21:26 51°8.85 2°33.088 6.7 109 9 101610 86
2002-02-13 10:21:33 51°8.838 2°33.058 6.4 108 8.9 101610 86
2002-02-13 10:21:38 51°8.831 2°33.037 6.2 108 8.9 101610 86
2002-02-13 10:21:42 51°8.825 2°33.019 6.6 106 8.9 101620 86
2002-02-13 10:21:49 51°8.815 2°32.989 7.1 112 8.9 101620 86
2002-02-13 10:21:54 51°8.808 2°32.967 6.7 111 9 101610 86
2002-02-13 10:21:59 51°8.8 2°32.945 6.9 106 9 101610 86
2002-02-13 10:22:03 51°8.794 2°32.928 6.1 112 8.9 101610 86
2002-02-13 10:22:09 51°8.785 2°32.902 6.7 106 8.9 101610 86
2002-02-13 10:22:14 51°8.778 2°32.88 6.9 109 8.9 101610 86
2002-02-13 10:22:19 51°8.771 2°32.858 6.6 108 8.9 101610 86
2002-02-13 10:22:23 51°8.765 2°32.841 6.8 107 9 101610 86
2002-02-13 10:22:28 51°8.758 2°32.819 6.3 110 9 101610 86
2002-02-13 10:22:34 51°8.749 2°32.793 6.7 115 8.9 101610 86
2002-02-13 10:22:39 51°8.742 2°32.771 6.8 110 8.9 101610 86
2002-02-13 10:22:42 51°8.737 2°32.758 6.6 112 8.9 101610 86
2002-02-13 10:22:49 51°8.728 2°32.727 6.9 113 8.9 101610 86
2002-02-13 10:22:54 51°8.721 2°32.704 6.7 116 9 101610 86
2002-02-13 10:22:59 51°8.715 2°32.682 7.2 112 9 101610 86
2002-02-13 10:23:04 51°8.709 2°32.659 6.9 117 8.9 101610 86
2002-02-13 10:23:09 51°8.703 2°32.636 7 118 8.9 101610 86
2002-02-13 10:23:14 51°8.698 2°32.613 6.9 115 9 101610 86
2002-02-13 10:23:19 51°8.693 2°32.59 6.9 115 9 101610 86
2002-02-13 10:23:24 51°8.688 2°32.567 6.6 114 9 101620 86
2002-02-13 10:23:29 51°8.683 2°32.543 7 116 9 101620 86
2002-02-13 10:23:33 51°8.678 2°32.525 6.7 113 9 101610 86
2002-02-13 10:23:38 51°8.673 2°32.502 7 113 9 101610 86
2002-02-13 10:23:42 51°8.669 2°32.484 6.9 110 9 101610 86
2002-02-13 10:23:48 51°8.662 2°32.457 6.2 109 9 101610 86
2002-02-13 10:23:54 51°8.655 2°32.43 6.1 112 9 101610 86
2002-02-13 10:23:58 51°8.649 2°32.412 6.8 109 9 101610 86
2002-02-13 10:24:02 51°8.645 2°32.395 6.2 111 9 101610 86
2002-02-13 10:24:09 51°8.636 2°32.364 7 110 9 101610 86
2002-02-13 10:24:14 51°8.629 2°32.341 6.4 109 9 101610 86
2002-02-13 10:24:19 51°8.623 2°32.319 6.6 112 9 101610 86
2002-02-13 10:24:23 51°8.618 2°32.301 6.8 110 9 101610 86
2002-02-13 10:24:29 51°8.61 2°32.275 6.6 106 9 101610 86
2002-02-13 10:24:34 51°8.604 2°32.253 6.8 108 9 101610 86
2002-02-13 10:24:39 51°8.597 2°32.231 6.7 110 9 101610 86
2002-02-13 10:24:43 51°8.592 2°32.213 6.4 107 9 101620 86
2002-02-13 10:24:49 51°8.584 2°32.187 7.1 106 9 101620 86
2002-02-13 10:24:53 51°8.579 2°32.17 7 110 9 101610 86
2002-02-13 10:24:58 51°8.572 2°32.148 6.5 109 9 101610 86
2002-02-13 10:25:02 51°8.567 2°32.131 6.4 107 9 101610 86
2002-02-13 10:25:09 51°8.557 2°32.1 6.1 107 9 101610 86
2002-02-13 10:25:13 51°8.551 2°32.083 7 107 9 101610 86
2002-02-13 10:25:18 51°8.544 2°32.062 6.9 107 9 101610 86
2002-02-13 10:25:24 51°8.535 2°32.036 6.7 111 9 101610 86
2002-02-13 10:25:29 51°8.528 2°32.015 6.3 107 9 101610 86
2002-02-13 10:25:33 51°8.522 2°31.997 6.5 112 9 101610 86
2002-02-13 10:25:38 51°8.514 2°31.977 6.2 109 9 101610 86
2002-02-13 10:25:44 51°8.504 2°31.952 6.2 109 9 101610 86
2002-02-13 10:25:49 51°8.496 2°31.932 6.1 107 9 101610 86
2002-02-13 10:25:54 51°8.487 2°31.912 6.4 114 9 101610 86
2002-02-13 10:25:59 51°8.478 2°31.892 6.3 109 9 101610 86
2002-02-13 10:26:04 51°8.47 2°31.872 6.7 112 9 101620 86
2002-02-13 10:26:09 51°8.463 2°31.85 6.3 111 9 101620 86
2002-02-13 10:26:13 51°8.457 2°31.833 6.5 114 9 101620 86
2002-02-13 10:26:18 51°8.45 2°31.811 6.2 112 9 101620 86
2002-02-13 10:26:24 51°8.443 2°31.785 6.7 116 8.9 101610 86
2002-02-13 10:26:29 51°8.438 2°31.762 7.2 115 8.9 101610 86
2002-02-13 10:26:34 51°8.432 2°31.739 6.6 116 9 101610 86
2002-02-13 10:26:39 51°8.427 2°31.716 7.3 114 9 101610 86
2002-02-13 10:26:43 51°8.423 2°31.698 6.6 115 9 101610 86
2002-02-13 10:26:48 51°8.418 2°31.675 7 116 9 101610 86
2002-02-13 10:26:53 51°8.414 2°31.652 6.7 115 9 101610 86
2002-02-13 10:26:58 51°8.409 2°31.629 7.4 110 9 101610 86
2002-02-13 10:27:02 51°8.405 2°31.611 6.2 112 9 101610 86
2002-02-13 10:27:08 51°8.399 2°31.583 7.2 112 9 101610 86
2002-02-13 10:27:12 51°8.395 2°31.565 7.2 114 8.9 101610 86
2002-02-13 10:27:18 51°8.388 2°31.539 7.2 114 8.9 101610 86
2002-02-13 10:27:22 51°8.383 2°31.521 6.2 109 9 101610 86
2002-02-13 10:27:28 51°8.375 2°31.495 6.3 110 9 101610 86
2002-02-13 10:27:33 51°8.367 2°31.474 6.8 111 9 101610 86
2002-02-13 10:27:38 51°8.36 2°31.453 5.9 112 9 101610 86
2002-02-13 10:27:42 51°8.353 2°31.437 5.7 114 9 101610 86
2002-02-13 10:27:48 51°8.344 2°31.412 6.5 114 9 101610 86
2002-02-13 10:27:52 51°8.338 2°31.395 6.4 114 9 101610 86
2002-02-13 10:27:58 51°8.33 2°31.369 6.3 112 9 101610 86
2002-02-13 10:28:02 51°8.325 2°31.351 6.7 113 9 101620 86
2002-02-13 10:28:08 51°8.319 2°31.326 6.4 114 9 101620 86
2002-02-13 10:28:12 51°8.315 2°31.31 5.9 111 9 101620 86
2002-02-13 10:28:18 51°8.31 2°31.287 5.7 108 9 101620 86
2002-02-13 10:28:22 51°8.307 2°31.274 5.3 107 9 101610 86
2002-02-13 10:28:28 51°8.303 2°31.256 4.3 105 9 101610 86
2002-02-13 10:28:32 51°8.301 2°31.246 4.2 96 9 101620 86
2002-02-13 10:28:38 51°8.296 2°31.234 3.8 77 9 101620 86
2002-02-13 10:28:42 51°8.293 2°31.228 3.3 68 9 101620 86
2002-02-13 10:28:48 51°8.289 2°31.221 2.8 134 9 101620 86
2002-02-13 10:28:53 51°8.285 2°31.217 2.5 42 9 101620 86
2002-02-13 10:28:58 51°8.282 2°31.214 2.6 18 9 101620 86
2002-02-13 10:29:02 51°8.28 2°31.212 2.5 19 9 101620 86
2002-02-13 10:29:08 51°8.277 2°31.21 2.3 354 9 101620 86
2002-02-13 10:29:12 51°8.276 2°31.21 2.3 352 9 101620 86
2002-02-13 10:29:18 51°8.275 2°31.21 2.5 348 9 101620 86
2002-02-13 10:29:22 51°8.275 2°31.21 2.4 346 9 101620 86
2002-02-13 10:29:28 51°8.274 2°31.21 2.2 354 9 101620 86
2002-02-13 10:29:32 51°8.273 2°31.21 1.9 344 9 101620 86
2002-02-13 10:29:38 51°8.271 2°31.21 1.7 336 9 101620 86
2002-02-13 10:29:42 51°8.27 2°31.211 1.4 334 9 101630 86
2002-02-13 10:29:48 51°8.266 2°31.212 1.6 312 9 101630 86
2002-02-13 10:29:52 51°8.263 2°31.214 1.4 316 9 101630 86
2002-02-13 10:29:58 51°8.258 2°31.217 1.4 294 9 101630 86
2002-02-13 10:30:02 51°8.255 2°31.221 1 313 9 101630 86
2002-02-13 10:30:09 51°8.249 2°31.228 1.1 216 9 101630 86
2002-02-13 10:30:13 51°8.246 2°31.233 0.6 246 9 101620 86
2002-02-13 10:30:18 51°8.242 2°31.241 0.9 231 9 101620 86
2002-02-13 10:30:22 51°8.239 2°31.247 1.8 210 9 101630 86
2002-02-13 10:30:28 51°8.237 2°31.259 3 208 9 101630 86
2002-02-13 10:30:32 51°8.235 2°31.267 3.8 196 9 101630 86
2002-02-13 10:30:38 51°8.235 2°31.279 3.9 195 9 101630 86
2002-02-13 10:30:42 51°8.235 2°31.287 4.4 188 9 101630 86
2002-02-13 10:30:48 51°8.237 2°31.3 5.1 183 9 101630 86
2002-02-13 10:30:53 51°8.24 2°31.309 5.1 180 9 101630 86
2002-02-13 10:30:58 51°8.243 2°31.318 5.4 171 9 101630 86
2002-02-13 10:31:02 51°8.247 2°31.325 5.5 173 9 101630 86
2002-02-13 10:31:09 51°8.254 2°31.335 5.8 163 9 101630 86
2002-02-13 10:31:14 51°8.26 2°31.34 5.2 159 9 101630 86
2002-02-13 10:31:18 51°8.265 2°31.343 5.9 150 9 101630 86
2002-02-13 10:31:22 51°8.271 2°31.345 6.5 152 9 101630 86
2002-02-13 10:31:29 51°8.281 2°31.346 6.8 144 9 101630 86
2002-02-13 10:31:33 51°8.286 2°31.344 6.1 141 9 101620 86
2002-02-13 10:31:38 51°8.293 2°31.342 7 136 9 101620 86
2002-02-13 10:31:42 51°8.299 2°31.338 6.7 133 9 101620 86
2002-02-13 10:31:49 51°8.307 2°31.329 7.2 125 9 101620 86
2002-02-13 10:31:54 51°8.313 2°31.321 6.5 125 9 101630 86
2002-02-13 10:31:58 51°8.317 2°31.313 6 122 9 101630 86
2002-02-13 10:32:04 51°8.323 2°31.302 6.7 118 9 101630 86
2002-02-13 10:32:08 51°8.327 2°31.295 6 119 9 101630 86
2002-02-13 10:32:13 51°8.331 2°31.287 5.8 117 9 101630 86
2002-02-13 10:32:18 51°8.335 2°31.28 5.2 119 9 101630 86
2002-02-13 10:32:22 51°8.338 2°31.275 5.1 122 9 101620 86
2002-02-13 10:32:28 51°8.342 2°31.27 4.6 124 9 101620 86
2002-02-13 10:32:33 51°8.345 2°31.267 4.7 131 9 101620 86
2002-02-13 10:32:38 51°8.347 2°31.266 3.9 128 9 101620 86
2002-02-13 10:32:43 51°8.349 2°31.265 3.5 130 9 101630 86
2002-02-13 10:32:49 51°8.349 2°31.265 3 140 9 101630 86
2002-02-13 10:32:53 51°8.349 2°31.265 3 138 9 101630 86
2002-02-13 10:32:58 51°8.349 2°31.265 3 142 9 101630 86
2002-02-13 10:33:03 51°8.349 2°31.266 3.5 143 9 101630 86
2002-02-13 10:33:09 51°8.349 2°31.266 3.3 146 9 101630 86
2002-02-13 10:33:14 51°8.349 2°31.267 3 147 9.1 101630 86
2002-02-13 10:33:18 51°8.349 2°31.268 3.8 151 9.1 101630 86
2002-02-13 10:33:22 51°8.349 2°31.268 3.8 155 9.1 101630 86
2002-02-13 10:33:29 51°8.35 2°31.269 3.4 153 9.1 101630 86
2002-02-13 10:33:34 51°8.35 2°31.27 3.9 156 9.1 101630 86
2002-02-13 10:33:38 51°8.35 2°31.27 4.1 159 9.1 101630 86
2002-02-13 10:33:42 51°8.35 2°31.271 4.4 161 9.1 101640 86
2002-02-13 10:33:48 51°8.35 2°31.272 4.4 163 9.1 101640 86
2002-02-13 10:33:54 51°8.351 2°31.273 4.6 167 9.1 101630 86
2002-02-13 10:33:59 51°8.351 2°31.274 4.8 169 9.1 101630 86
2002-02-13 10:34:04 51°8.351 2°31.275 4.4 173 9.1 101630 86
2002-02-13 10:34:10 51°8.352 2°31.276 4.4 173 9.1 101630 86
2002-02-13 10:34:15 51°8.352 2°31.277 4.3 175 9.1 101630 86
2002-02-13 10:34:20 51°8.352 2°31.278 4.7 179 9.1 101630 86
2002-02-13 10:34:24 51°8.353 2°31.28 4.3 181 9.1 101630 85
2002-02-13 10:34:30 51°8.353 2°31.281 4.4 184 9.1 101630 85
2002-02-13 10:34:35 51°8.354 2°31.283 4.3 181 9.1 101630 85
2002-02-13 10:34:40 51°8.354 2°31.285 4.2 188 9.1 101630 85
2002-02-13 10:34:45 51°8.354 2°31.286 4.1 188 9.1 101630 85
2002-02-13 10:34:50 51°8.355 2°31.288 3.9 191 9.1 101630 85
2002-02-13 10:34:54 51°8.355 2°31.29 3.9 192 9.1 101630 85
2002-02-13 10:34:58 51°8.355 2°31.291 4 197 9.1 101630 85
2002-02-13 10:35:04 51°8.355 2°31.293 4.4 199 9 101630 85
2002-02-13 10:35:09 51°8.355 2°31.295 3.7 198 9 101630 85
2002-02-13 10:35:13 51°8.355 2°31.297 4.1 203 9.1 101630 85
2002-02-13 10:35:19 51°8.356 2°31.299 3.7 199 9.1 101630 85
2002-02-13 10:35:23 51°8.356 2°31.301 4.6 205 9.1 101630 85
2002-02-13 10:35:29 51°8.356 2°31.303 4.6 207 9.1 101630 85
2002-02-13 10:35:32 51°8.356 2°31.305 4.5 204 9.1 101630 85
2002-02-13 10:35:38 51°8.356 2°31.308 4.6 207 9.1 101630 85
2002-02-13 10:35:42 51°8.356 2°31.31 4.8 211 9.1 101630 85
2002-02-13 10:35:48 51°8.356 2°31.313 4.9 208 9.1 101630 85
2002-02-13 10:35:53 51°8.357 2°31.316 4.8 206 9.1 101630 85
2002-02-13 10:35:58 51°8.357 2°31.319 4 212 9.1 101630 85
2002-02-13 10:36:04 51°8.357 2°31.322 4.8 207 9.1 101630 85
2002-02-13 10:36:09 51°8.357 2°31.326 4.8 207 9.1 101630 85
2002-02-13 10:36:13 51°8.357 2°31.328 4.2 202 9.1 101630 85
2002-02-13 10:36:18 51°8.357 2°31.332 4.9 205 9.1 101630 85
2002-02-13 10:36:22 51°8.357 2°31.334 4.5 204 9.1 101630 85
2002-02-13 10:36:29 51°8.358 2°31.34 4.5 207 9.1 101630 85
2002-02-13 10:36:32 51°8.358 2°31.342 4.6 205 9.1 101630 85
2002-02-13 10:36:38 51°8.358 2°31.347 4.5 205 9.1 101630 85
2002-02-13 10:36:42 51°8.358 2°31.35 4.4 203 9.1 101620 85
2002-02-13 10:36:48 51°8.358 2°31.355 4.8 206 9.1 101620 85
2002-02-13 10:36:54 51°8.358 2°31.36 4.5 205 9.1 101630 85
2002-02-13 10:36:58 51°8.359 2°31.364 4.5 202 9.1 101630 85
2002-02-13 10:37:02 51°8.359 2°31.367 4.6 204 9.1 101630 85
2002-02-13 10:37:09 51°8.359 2°31.373 4.1 205 9.1 101630 85
2002-02-13 10:37:12 51°8.359 2°31.376 4 204 9.1 101630 85
2002-02-13 10:37:18 51°8.359 2°31.381 4.6 203 9.1 101630 85
2002-02-13 10:37:22 51°8.36 2°31.385 4.6 203 9.1 101630 85
2002-02-13 10:37:28 51°8.36 2°31.39 5.4 209 9.1 101630 85
2002-02-13 10:37:34 51°8.36 2°31.396 4.8 204 9.1 101620 86
2002-02-13 10:37:38 51°8.36 2°31.399 4.9 204 9.1 101620 86
2002-02-13 10:37:42 51°8.361 2°31.402 4.4 201 9.1 101630 86
2002-02-13 10:37:48 51°8.361 2°31.407 4.3 201 9.1 101630 86
2002-02-13 10:37:53 51°8.361 2°31.412 5 205 9.1 101630 86
2002-02-13 10:37:58 51°8.361 2°31.416 4 199 9.1 101630 86
2002-02-13 10:38:04 51°8.361 2°31.42 4.3 201 9.1 101630 86
2002-02-13 10:38:09 51°8.362 2°31.424 4.5 204 9.1 101630 86
2002-02-13 10:38:14 51°8.362 2°31.428 4 202 9.1 101630 86
2002-02-13 10:38:18 51°8.362 2°31.431 4.3 201 9.1 101630 86
2002-02-13 10:38:22 51°8.362 2°31.434 4.1 201 9.1 101630 86
2002-02-13 10:38:28 51°8.363 2°31.438 4.4 202 9.1 101630 86
2002-02-13 10:38:33 51°8.363 2°31.442 4.6 205 9.1 101630 86
2002-02-13 10:38:38 51°8.363 2°31.446 4 196 9.1 101630 86
2002-02-13 10:38:42 51°8.363 2°31.448 4.9 200 9.1 101630 86
2002-02-13 10:38:48 51°8.364 2°31.453 4.5 202 9.1 101630 86
2002-02-13 10:38:54 51°8.364 2°31.457 4.4 203 9.1 101630 86
2002-02-13 10:38:57 51°8.364 2°31.459 4.9 202 9.1 101630 86
2002-02-13 10:39:04 51°8.364 2°31.463 4.5 205 9.1 101620 86
2002-02-13 10:39:09 51°8.364 2°31.467 4.9 206 9.1 101620 86
2002-02-13 10:39:14 51°8.365 2°31.47 4.5 200 9.1 101630 86
2002-02-13 10:39:18 51°8.365 2°31.472 4.4 203 9.1 101630 86
2002-02-13 10:39:22 51°8.365 2°31.475 4.1 197 9.1 101630 86
2002-02-13 10:39:29 51°8.365 2°31.479 4.6 199 9.1 101630 86
2002-02-13 10:39:33 51°8.366 2°31.482 4.2 197 9.1 101630 86
2002-02-13 10:39:38 51°8.366 2°31.485 4.5 201 9.1 101630 86
2002-02-13 10:39:43 51°8.366 2°31.487 4.2 200 9.1 101630 86
2002-02-13 10:39:48 51°8.366 2°31.49 4.2 205 9.1 101630 86
2002-02-13 10:39:54 51°8.367 2°31.494 3.8 204 9.1 101630 86
2002-02-13 10:39:58 51°8.367 2°31.496 4.3 204 9.1 101630 86
2002-02-13 10:40:04 51°8.367 2°31.499 4.2 207 9.1 101630 86
2002-02-13 10:40:09 51°8.368 2°31.502 4.3 212 9.1 101630 86
2002-02-13 10:40:14 51°8.368 2°31.504 4.1 204 9.1 101630 86
2002-02-13 10:40:18 51°8.368 2°31.506 4.2 202 9.1 101630 86
2002-02-13 10:40:22 51°8.369 2°31.508 4.4 201 9.1 101630 86
2002-02-13 10:40:29 51°8.369 2°31.511 4.6 203 9.1 101630 86
2002-02-13 10:40:33 51°8.369 2°31.513 4 199 9.1 101630 86
2002-02-13 10:40:38 51°8.369 2°31.516 4.6 206 9.1 101630 86
2002-02-13 10:40:44 51°8.37 2°31.519 4.3 206 9.1 101630 86
2002-02-13 10:40:48 51°8.37 2°31.521 4.6 206 9.1 101630 86
2002-02-13 10:40:52 51°8.37 2°31.522 4 199 9.1 101630 86
2002-02-13 10:40:58 51°8.371 2°31.525 3.8 200 9.1 101630 86
2002-02-13 10:41:02 51°8.371 2°31.527 4.3 203 9.1 101630 86
2002-02-13 10:41:09 51°8.371 2°31.53 4.3 201 9.1 101630 86
2002-02-13 10:41:14 51°8.371 2°31.533 4.1 198 9.1 101630 86
2002-02-13 10:41:18 51°8.372 2°31.535 4.1 202 9.1 101630 86
2002-02-13 10:41:22 51°8.372 2°31.536 3.9 202 9.1 101630 86
2002-02-13 10:41:28 51°8.372 2°31.539 4.8 207 9.1 101630 86
2002-02-13 10:41:32 51°8.372 2°31.541 4.5 202 9.1 101630 86
2002-02-13 10:41:38 51°8.373 2°31.544 4.4 204 9.1 101630 86
2002-02-13 10:41:43 51°8.373 2°31.546 4.8 206 9.1 101630 86
2002-02-13 10:41:48 51°8.374 2°31.548 4.9 203 9.1 101630 86
2002-02-13 10:41:54 51°8.374 2°31.551 5.3 204 9.1 101630 86
2002-02-13 10:41:58 51°8.375 2°31.553 4.9 204 9.1 101630 86
2002-02-13 10:42:02 51°8.375 2°31.554 5 205 9.1 101630 86
2002-02-13 10:42:08 51°8.375 2°31.557 4.9 200 9.1 101630 86
2002-02-13 10:42:14 51°8.375 2°31.559 4.7 202 9.1 101630 86
2002-02-13 10:42:18 51°8.376 2°31.561 4.7 200 9.1 101630 86
2002-02-13 10:42:22 51°8.376 2°31.563 4.6 202 9.1 101630 86
2002-02-13 10:42:28 51°8.376 2°31.565 4.8 205 9.1 101630 86
2002-02-13 10:42:32 51°8.376 2°31.567 4.9 202 9.1 101630 86
2002-02-13 10:42:38 51°8.377 2°31.571 4.8 200 9.1 101630 86
2002-02-13 10:42:42 51°8.377 2°31.573 4.5 201 9.1 101630 86
2002-02-13 10:42:49 51°8.378 2°31.577 5 201 9.1 101630 86
2002-02-13 10:42:54 51°8.379 2°31.581 5.4 207 9.1 101630 86
2002-02-13 10:42:58 51°8.379 2°31.583 5.7 201 9.1 101630 86
2002-02-13 10:43:02 51°8.38 2°31.586 5.2 200 9.1 101630 86
2002-02-13 10:43:08 51°8.38 2°31.588 5.5 205 9.1 101630 86
2002-02-13 10:43:12 51°8.38 2°31.59 5.4 206 9.1 101630 86
2002-02-13 10:43:18 51°8.38 2°31.591 5.2 204 9.1 101630 86
2002-02-13 10:43:22 51°8.38 2°31.592 5 200 9.1 101630 86
2002-02-13 10:43:28 51°8.38 2°31.593 4.9 204 9.1 101630 86
2002-02-13 10:43:33 51°8.379 2°31.595 5.2 204 9 101630 86
2002-02-13 10:43:38 51°8.379 2°31.596 4.3 202 9 101630 86
2002-02-13 10:43:44 51°8.379 2°31.598 4.9 206 9 101640 86
2002-02-13 10:43:49 51°8.379 2°31.599 5.1 202 9 101640 86
2002-02-13 10:43:53 51°8.379 2°31.6 4.7 207 9 101630 86
2002-02-13 10:43:58 51°8.379 2°31.601 4.8 204 9 101630 86
2002-02-13 10:44:02 51°8.378 2°31.602 3.9 210 9 101640 86
2002-02-13 10:44:08 51°8.378 2°31.604 5.1 208 9 101640 86
2002-02-13 10:44:12 51°8.378 2°31.605 5.4 205 9 101640 86
2002-02-13 10:44:18 51°8.378 2°31.607 5.1 207 9 101640 86
2002-02-13 10:44:22 51°8.378 2°31.608 5.2 205 9 101640 86
2002-02-13 10:44:28 51°8.378 2°31.609 4.5 212 9 101640 86
2002-02-13 10:44:34 51°8.377 2°31.611 5.3 205 9 101640 86
2002-02-13 10:44:38 51°8.377 2°31.612 4.6 212 9 101640 86
2002-02-13 10:44:42 51°8.377 2°31.613 4.9 204 9 101640 86
2002-02-13 10:44:48 51°8.377 2°31.615 4.2 203 9 101640 86
2002-02-13 10:44:52 51°8.376 2°31.616 5 203 9 101640 86
2002-02-13 10:44:58 51°8.376 2°31.617 4.8 202 9 101640 86
2002-02-13 10:45:02 51°8.376 2°31.619 4.8 207 9 101640 86
2002-02-13 10:45:08 51°8.376 2°31.62 4.5 204 9 101640 86
2002-02-13 10:45:12 51°8.375 2°31.621 4.2 203 9 101640 86
2002-02-13 10:45:18 51°8.375 2°31.623 4 213 9 101640 86
2002-02-13 10:45:22 51°8.375 2°31.624 4.5 213 9 101640 86
2002-02-13 10:45:28 51°8.375 2°31.626 4.8 204 9 101640 86
2002-02-13 10:45:34 51°8.375 2°31.628 4.3 206 9 101640 86
2002-02-13 10:45:38 51°8.375 2°31.629 4.4 199 9 101640 86
2002-02-13 10:45:42 51°8.374 2°31.63 4.5 203 9 101650 86
2002-02-13 10:45:48 51°8.374 2°31.632 4.7 205 9 101650 86
2002-02-13 10:45:52 51°8.374 2°31.633 4.3 208 9 101640 86
2002-02-13 10:45:58 51°8.374 2°31.635 3.5 217 9 101640 86
2002-02-13 10:46:02 51°8.373 2°31.636 3.8 210 9 101650 86
2002-02-13 10:46:09 51°8.373 2°31.638 4.1 209 9 101650 86
2002-02-13 10:46:14 51°8.373 2°31.64 3.8 209 9 101650 86
2002-02-13 10:46:18 51°8.373 2°31.641 4.2 203 9 101650 86
2002-02-13 10:46:22 51°8.373 2°31.642 4.3 202 9 101650 86
2002-02-13 10:46:28 51°8.373 2°31.644 4.2 207 9 101650 86
2002-02-13 10:46:34 51°8.373 2°31.646 4 205 9 101650 86
2002-02-13 10:46:38 51°8.373 2°31.647 3.7 208 9 101650 86
2002-02-13 10:46:42 51°8.373 2°31.648 3.7 209 9 101650 86
2002-02-13 10:46:49 51°8.372 2°31.65 4.2 217 9 101650 86
2002-02-13 10:46:54 51°8.372 2°31.652 4.2 215 9 101650 86
2002-02-13 10:46:59 51°8.372 2°31.653 4.2 212 9 101650 86
2002-02-13 10:47:03 51°8.372 2°31.654 4.7 205 9 101650 86
2002-02-13 10:47:09 51°8.372 2°31.656 4.1 209 9 101650 86
2002-02-13 10:47:13 51°8.372 2°31.657 4.3 207 9 101650 86
2002-02-13 10:47:19 51°8.372 2°31.659 4.4 207 9 101650 86
2002-02-13 10:47:23 51°8.372 2°31.66 5 202 9 101650 86
2002-02-13 10:47:29 51°8.372 2°31.662 4.6 203 9 101650 86
2002-02-13 10:47:33 51°8.372 2°31.663 4 209 9.1 101650 86
2002-02-13 10:47:39 51°8.372 2°31.665 5.4 201 9.1 101650 86
2002-02-13 10:47:43 51°8.372 2°31.666 4 207 9 101650 86
2002-02-13 10:47:48 51°8.372 2°31.668 5.1 206 9 101650 86
2002-02-13 10:47:54 51°8.371 2°31.669 4.9 203 9.1 101650 86
2002-02-13 10:47:58 51°8.371 2°31.671 4.7 209 9.1 101650 86
2002-02-13 10:48:04 51°8.371 2°31.673 5 205 9 101650 86
2002-02-13 10:48:09 51°8.371 2°31.674 4.9 212 9 101650 86
2002-02-13 10:48:13 51°8.371 2°31.675 5.3 203 9.1 101650 86
2002-02-13 10:48:18 51°8.371 2°31.677 5.5 205 9.1 101650 86
2002-02-13 10:48:22 51°8.371 2°31.678 5.5 202 9.1 101650 86
2002-02-13 10:48:29 51°8.372 2°31.682 5 204 9.1 101650 86
2002-02-13 10:48:33 51°8.372 2°31.685 5.5 206 9 101650 86
2002-02-13 10:48:38 51°8.373 2°31.689 5.2 197 9 101650 86
2002-02-13 10:48:44 51°8.375 2°31.697 5.2 194 9 101650 86
2002-02-13 10:48:46 51°8.375 2°31.7 5.7 189 9 101650 86
2002-02-13 10:48:52 51°8.378 2°31.711 6.3 185 9 101650 86
2002-02-13 10:48:58 51°8.382 2°31.724 6.4 187 9 101650 86
2002-02-13 10:49:03 51°8.386 2°31.735 6.6 184 9 101650 86
2002-02-13 10:49:09 51°8.391 2°31.75 7.1 180 9 101650 86
2002-02-13 10:49:12 51°8.393 2°31.758 6.7 177 9 101640 86
2002-02-13 10:49:18 51°8.399 2°31.774 7.3 177 9 101640 86
2002-02-13 10:49:22 51°8.403 2°31.785 7.8 176 9 101640 86
2002-02-13 10:49:29 51°8.411 2°31.805 8.1 175 9 101640 86
2002-02-13 10:49:33 51°8.415 2°31.817 7.7 171 9 101640 86
2002-02-13 10:49:37 51°8.42 2°31.829 8 169 9 101640 86
2002-02-13 10:49:42 51°8.427 2°31.844 8.4 173 9 101640 86
2002-02-13 10:49:49 51°8.436 2°31.866 8.7 174 9 101640 86
2002-02-13 10:49:53 51°8.442 2°31.879 7.3 171 9 101630 86
2002-02-13 10:49:58 51°8.448 2°31.895 8.4 177 9 101630 86
2002-02-13 10:50:02 51°8.453 2°31.909 7.2 174 9 101640 86
2002-02-13 10:50:08 51°8.459 2°31.931 7.8 180 9 101640 86
2002-02-13 10:50:12 51°8.463 2°31.945 7.4 176 9 101640 86
2002-02-13 10:50:19 51°8.467 2°31.972 7.2 183 9 101640 86
2002-02-13 10:50:22 51°8.469 2°31.984 6.4 181 9 101640 86
2002-02-13 10:50:28 51°8.472 2°32.008 7.2 182 9 101640 86
2002-02-13 10:50:33 51°8.475 2°32.028 6.6 181 9 101630 86
2002-02-13 10:50:37 51°8.476 2°32.044 6.4 181 9 101630 86
2002-02-13 10:50:42 51°8.478 2°32.064 7.1 177 9 101640 86
2002-02-13 10:50:48 51°8.481 2°32.088 7 179 9 101640 86
2002-02-13 10:50:53 51°8.484 2°32.108 7 178 9 101640 86
2002-02-13 10:50:58 51°8.486 2°32.128 7.3 177 9 101640 86
2002-02-13 10:51:02 51°8.489 2°32.145 7 174 9 101640 86
2002-02-13 10:51:08 51°8.493 2°32.169 7.3 176 9 101640 86
2002-02-13 10:51:13 51°8.497 2°32.188 7.7 174 9 101640 86
2002-02-13 10:51:18 51°8.501 2°32.208 7.4 173 9 101640 86
2002-02-13 10:51:22 51°8.505 2°32.224 7.1 171 9 101640 86
2002-02-13 10:51:28 51°8.51 2°32.247 8 177 9 101640 86
2002-02-13 10:51:34 51°8.517 2°32.271 7.3 172 9 101640 86
2002-02-13 10:51:38 51°8.52 2°32.286 7.9 175 9 101640 86
2002-02-13 10:51:42 51°8.524 2°32.302 7.8 176 9 101630 86
2002-02-13 10:51:49 51°8.531 2°32.329 7.5 176 9 101630 86
2002-02-13 10:51:54 51°8.536 2°32.349 7.1 175 9 101630 86
2002-02-13 10:51:58 51°8.54 2°32.364 7.9 175 9 101630 86
2002-02-13 10:52:02 51°8.544 2°32.38 7.5 176 9 101640 86
2002-02-13 10:52:09 51°8.55 2°32.408 8 175 9 101640 86
2002-02-13 10:52:14 51°8.555 2°32.428 7.7 175 9 101640 86
2002-02-13 10:52:18 51°8.559 2°32.444 7.2 175 9 101640 86
2002-02-13 10:52:22 51°8.563 2°32.459 7.2 170 9 101630 86
2002-02-13 10:52:28 51°8.568 2°32.483 7.8 174 9 101630 86
2002-02-13 10:52:33 51°8.573 2°32.503 7.1 174 9 101630 86
2002-02-13 10:52:37 51°8.577 2°32.519 7.6 177 9 101630 86
2002-02-13 10:52:44 51°8.583 2°32.546 7.5 176 9 101640 86
2002-02-13 10:52:48 51°8.587 2°32.562 7.4 174 9 101640 86
2002-02-13 10:52:52 51°8.591 2°32.578 7.5 174 9 101630 86
2002-02-13 10:52:58 51°8.597 2°32.602 8.3 175 9 101630 86
2002-02-13 10:53:01 51°8.599 2°32.614 7.5 176 9 101630 86
2002-02-13 10:53:08 51°8.606 2°32.642 7.6 175 9 101630 86
2002-02-13 10:53:13 51°8.611 2°32.662 7.3 172 9 101630 86
2002-02-13 10:53:18 51°8.616 2°32.682 7.5 175 9 101630 86
2002-02-13 10:53:22 51°8.619 2°32.697 7.9 178 9 101630 86
2002-02-13 10:53:28 51°8.625 2°32.721 7 176 9 101630 86
2002-02-13 10:53:32 51°8.629 2°32.737 7 178 9 101640 86
2002-02-13 10:53:38 51°8.635 2°32.76 6.9 173 9 101640 86
2002-02-13 10:53:41 51°8.638 2°32.772 7.8 177 9 101630 86
2002-02-13 10:53:49 51°8.645 2°32.804 7.5 173 9 101630 86
2002-02-13 10:53:53 51°8.649 2°32.82 6.7 175 9 101630 86
2002-02-13 10:53:58 51°8.654 2°32.839 7.2 180 9 101630 86
2002-02-13 10:54:02 51°8.658 2°32.855 7.1 177 9 101630 86
2002-02-13 10:54:08 51°8.663 2°32.879 7.6 174 9 101630 86
2002-02-13 10:54:12 51°8.667 2°32.894 7.6 176 9 101630 86
2002-02-13 10:54:17 51°8.672 2°32.914 6.6 171 9 101630 86
2002-02-13 10:54:22 51°8.676 2°32.934 7.2 176 9 101630 86
2002-02-13 10:54:28 51°8.682 2°32.957 7.6 177 9 101630 86
2002-02-13 10:54:33 51°8.687 2°32.976 7.2 177 9 101630 86
2002-02-13 10:54:37 51°8.691 2°32.992 7.4 173 9 101630 86
2002-02-13 10:54:42 51°8.695 2°33.012 6.9 174 9 101630 86
2002-02-13 10:54:48 51°8.701 2°33.035 7.2 176 9 101630 86
2002-02-13 10:54:52 51°8.704 2°33.051 8 176 9 101630 86
2002-02-13 10:54:57 51°8.709 2°33.07 8.1 174 9 101630 86
2002-02-13 10:55:03 51°8.715 2°33.094 8.2 177 9 101630 86
2002-02-13 10:55:08 51°8.72 2°33.113 7.3 176 9 101630 86
2002-02-13 10:55:12 51°8.723 2°33.129 7.7 178 9 101630 86
2002-02-13 10:55:18 51°8.729 2°33.152 7.7 176 9 101630 86
2002-02-13 10:55:22 51°8.733 2°33.168 7.4 177 9 101630 86
2002-02-13 10:55:29 51°8.739 2°33.195 7 174 9 101630 86
2002-02-13 10:55:33 51°8.743 2°33.211 7.4 174 9 101630 86
2002-02-13 10:55:38 51°8.748 2°33.23 7.5 177 9 101630 86
2002-02-13 10:55:44 51°8.754 2°33.254 7.7 180 9 101630 86
2002-02-13 10:55:48 51°8.757 2°33.269 8.1 178 9 101630 86
2002-02-13 10:55:53 51°8.762 2°33.289 8.8 180 9 101630 86
2002-02-13 10:55:58 51°8.766 2°33.309 8.5 180 9 101630 86
2002-02-13 10:56:02 51°8.77 2°33.325 7.5 178 9 101630 86
2002-02-13 10:56:09 51°8.775 2°33.353 7.3 180 9 101630 86
2002-02-13 10:56:14 51°8.779 2°33.373 7.7 181 9 101630 86
2002-02-13 10:56:18 51°8.783 2°33.389 7.1 173 9 101630 86
2002-02-13 10:56:22 51°8.786 2°33.405 7.4 172 9 101630 86
2002-02-13 10:56:29 51°8.791 2°33.433 7.1 172 9 101630 86
2002-02-13 10:56:32 51°8.793 2°33.445 8.1 176 9 101630 86
2002-02-13 10:56:38 51°8.798 2°33.469 8 172 9 101630 86
2002-02-13 10:56:42 51°8.801 2°33.485 7.9 174 9 101630 86
2002-02-13 10:56:49 51°8.807 2°33.513 7.8 172 9 101630 86
2002-02-13 10:56:53 51°8.81 2°33.53 7.7 171 9 101630 86
2002-02-13 10:56:58 51°8.814 2°33.55 7.7 172 9 101630 86
2002-02-13 10:57:02 51°8.817 2°33.566 7.4 172 9 101630 86
2002-02-13 10:57:08 51°8.823 2°33.59 6.9 170 9 101630 86
2002-02-13 10:57:14 51°8.828 2°33.614 7.5 169 9.1 101630 86
2002-02-13 10:57:18 51°8.831 2°33.63 7.9 172 9.1 101630 86
2002-02-13 10:57:22 51°8.835 2°33.646 7.8 170 9 101620 87
2002-02-13 10:57:26 51°8.838 2°33.662 7.9 172 9 101620 87
2002-02-13 10:57:33 51°8.844 2°33.69 7.4 170 9.1 101630 87
2002-02-13 10:57:38 51°8.847 2°33.71 7.6 170 9.1 101630 87
2002-02-13 10:57:42 51°8.851 2°33.726 8.1 173 9.1 101630 87
2002-02-13 10:57:48 51°8.856 2°33.751 7 169 9.1 101630 87
2002-02-13 10:57:54 51°8.861 2°33.775 7.4 168 9.1 101630 87
2002-02-13 10:57:58 51°8.865 2°33.791 6.9 171 9.1 101630 87
2002-02-13 10:58:02 51°8.868 2°33.807 7.9 167 9.1 101630 87
2002-02-13 10:58:08 51°8.873 2°33.832 7.5 168 9.1 101630 87
2002-02-13 10:58:12 51°8.876 2°33.848 7.4 169 9.1 101630 87
2002-02-13 10:58:18 51°8.881 2°33.872 7.8 168 9.1 101630 87
2002-02-13 10:58:22 51°8.884 2°33.888 8 170 9.1 101630 87
2002-02-13 10:58:28 51°8.889 2°33.913 7 171 9.1 101630 87
2002-02-13 10:58:34 51°8.895 2°33.937 7.7 172 9.1 101630 87
2002-02-13 10:58:38 51°8.898 2°33.953 7.2 168 9.1 101630 87
2002-02-13 10:58:42 51°8.901 2°33.969 8.1 173 9.1 101630 87
2002-02-13 10:58:49 51°8.907 2°33.998 8 171 9.1 101630 87
2002-02-13 10:58:54 51°8.912 2°34.018 7.4 171 9.1 101630 86
2002-02-13 10:58:58 51°8.915 2°34.034 7.9 174 9.1 101630 86
2002-02-13 10:59:04 51°8.92 2°34.059 7.8 174 9 101630 86
2002-02-13 10:59:08 51°8.924 2°34.075 7.3 175 9 101630 86
2002-02-13 10:59:12 51°8.927 2°34.091 7.1 169 9 101630 86
2002-02-13 10:59:18 51°8.932 2°34.116 7.6 172 9 101630 86
2002-02-13 10:59:22 51°8.936 2°34.132 7.5 169 9 101630 86
2002-02-13 10:59:28 51°8.941 2°34.156 7.8 173 9 101630 86
2002-02-13 10:59:32 51°8.944 2°34.172 7.2 168 9 101630 86
2002-02-13 10:59:38 51°8.949 2°34.197 7.6 174 9 101630 86
2002-02-13 10:59:42 51°8.953 2°34.213 7.2 174 9 101630 86
2002-02-13 10:59:48 51°8.958 2°34.238 7.8 176 9 101630 86
2002-02-13 10:59:52 51°8.961 2°34.254 7.7 176 9 101630 86
2002-02-13 10:59:58 51°8.966 2°34.278 7.4 172 9 101630 86
2002-02-13 11:00:02 51°8.97 2°34.295 6.9 170 9 101630 86
2002-02-13 11:00:08 51°8.975 2°34.319 6.9 171 9 101630 86
2002-02-13 11:00:12 51°8.978 2°34.336 7.2 172 9 101630 86
2002-02-13 11:00:18 51°8.982 2°34.361 7.3 177 9 101630 86
2002-02-13 11:00:22 51°8.985 2°34.377 7.2 173 9 101630 86
2002-02-13 11:00:26 51°8.987 2°34.394 7.2 173 9 101630 86
2002-02-13 11:00:32 51°8.991 2°34.419 7.2 172 9 101630 86
2002-02-13 11:00:37 51°8.993 2°34.44 6.8 173 9 101630 86
2002-02-13 11:00:42 51°8.996 2°34.462 7.5 174 9 101630 86
2002-02-13 11:00:48 51°9 2°34.487 6.9 172 9 101630 86
2002-02-13 11:00:54 51°9.003 2°34.512 7.6 171 9 101630 86
2002-02-13 11:00:58 51°9.005 2°34.53 7.8 174 9 101630 86
2002-02-13 11:01:02 51°9.007 2°34.547 7.1 174 9 101630 86
2002-02-13 11:01:08 51°9.01 2°34.572 7.8 172 9 101630 86
2002-02-13 11:01:12 51°9.013 2°34.589 6.4 170 9 101630 86
2002-02-13 11:01:17 51°9.016 2°34.611 7.5 171 9 101630 86
2002-02-13 11:01:22 51°9.019 2°34.632 7.8 172 9 101630 86
2002-02-13 11:01:28 51°9.023 2°34.657 7.8 173 9 101630 86
2002-02-13 11:01:33 51°9.027 2°34.678 7.2 174 9 101630 86
2002-02-13 11:01:38 51°9.03 2°34.699 7.9 171 9 101630 86
2002-02-13 11:01:44 51°9.034 2°34.724 7.6 172 8.9 101630 86
2002-02-13 11:01:48 51°9.036 2°34.741 7.3 171 8.9 101630 86
2002-02-13 11:01:54 51°9.04 2°34.766 7.6 171 9 101630 86
2002-02-13 11:01:58 51°9.042 2°34.783 7 173 9 101630 86
2002-02-13 11:02:04 51°9.046 2°34.808 7.1 171 8.9 101630 86
2002-02-13 11:02:08 51°9.048 2°34.825 8.2 173 8.9 101630 86
2002-02-13 11:02:12 51°9.051 2°34.842 8 174 9 101630 86
2002-02-13 11:02:18 51°9.053 2°34.868 7.4 172 9 101630 86
2002-02-13 11:02:22 51°9.055 2°34.885 7.2 171 9 101630 86
2002-02-13 11:02:28 51°9.058 2°34.91 7.9 171 9 101630 86
2002-02-13 11:02:33 51°9.06 2°34.931 7.2 169 9 101630 86
2002-02-13 11:02:38 51°9.063 2°34.952 8.2 171 9 101630 86
2002-02-13 11:02:42 51°9.065 2°34.969 8 171 8.9 101630 86
2002-02-13 11:02:48 51°9.068 2°34.995 8 175 8.9 101630 86
2002-02-13 11:02:53 51°9.07 2°35.016 7.6 172 8.9 101630 86
2002-02-13 11:02:58 51°9.073 2°35.037 7.4 173 8.9 101630 86
2002-02-13 11:03:02 51°9.075 2°35.054 8.2 169 9 101630 86
2002-02-13 11:03:08 51°9.078 2°35.079 7.8 174 9 101630 86
2002-02-13 11:03:14 51°9.082 2°35.104 8.5 170 9 101630 86
2002-02-13 11:03:18 51°9.084 2°35.121 7.7 171 9 101630 86
2002-02-13 11:03:22 51°9.086 2°35.138 7.8 169 8.9 101630 86
2002-02-13 11:03:27 51°9.089 2°35.159 7.9 172 8.9 101630 86
2002-02-13 11:03:33 51°9.092 2°35.184 8.8 174 8.9 101630 85
2002-02-13 11:03:37 51°9.094 2°35.201 8.2 172 8.9 101630 85
2002-02-13 11:03:43 51°9.098 2°35.227 8.3 172 8.9 101630 85
2002-02-13 11:03:48 51°9.1 2°35.248 8.1 175 8.9 101630 85
2002-02-13 11:03:53 51°9.103 2°35.269 7.5 173 8.9 101630 85
2002-02-13 11:03:58 51°9.105 2°35.29 7.8 172 8.9 101630 85
2002-02-13 11:04:02 51°9.107 2°35.307 8 172 8.9 101620 85
2002-02-13 11:04:08 51°9.11 2°35.332 7.2 171 8.9 101620 85
2002-02-13 11:04:13 51°9.112 2°35.354 8 170 8.9 101630 85
2002-02-13 11:04:18 51°9.115 2°35.375 7.8 171 8.9 101630 85
2002-02-13 11:04:23 51°9.117 2°35.396 7.6 174 8.9 101630 85
2002-02-13 11:04:28 51°9.119 2°35.417 7.6 174 8.9 101630 85
2002-02-13 11:04:34 51°9.121 2°35.443 8.2 174 8.9 101630 85
2002-02-13 11:04:38 51°9.123 2°35.46 8.1 173 8.9 101630 85
2002-02-13 11:04:42 51°9.125 2°35.477 7.9 170 8.9 101630 85
2002-02-13 11:04:48 51°9.127 2°35.502 7.8 170 8.9 101630 85
2002-02-13 11:04:53 51°9.13 2°35.524 7.8 168 8.9 101620 85
2002-02-13 11:04:58 51°9.132 2°35.545 7.7 168 8.9 101620 85
2002-02-13 11:05:02 51°9.134 2°35.562 7.6 170 8.9 101630 85
2002-02-13 11:05:08 51°9.136 2°35.587 8.7 170 8.9 101630 85
2002-02-13 11:05:12 51°9.138 2°35.604 8.1 171 8.9 101630 85
2002-02-13 11:05:17 51°9.141 2°35.626 8.4 170 8.9 101630 85
2002-02-13 11:05:23 51°9.144 2°35.651 7.3 169 8.9 101630 85
2002-02-13 11:05:28 51°9.146 2°35.673 8 172 8.9 101630 85
2002-02-13 11:05:33 51°9.148 2°35.694 8.4 172 8.9 101630 85
2002-02-13 11:05:38 51°9.15 2°35.716 8.3 173 8.9 101630 85
2002-02-13 11:05:43 51°9.153 2°35.737 7.8 173 8.9 101630 85
2002-02-13 11:05:47 51°9.154 2°35.754 8.5 176 8.9 101630 85
2002-02-13 11:05:53 51°9.157 2°35.78 8.2 174 8.9 101630 85
2002-02-13 11:05:57 51°9.159 2°35.798 7.9 169 8.9 101630 85
2002-02-13 11:06:01 51°9.161 2°35.815 8.3 173 8.9 101630 85
2002-02-13 11:06:07 51°9.163 2°35.841 7.8 174 8.9 101630 85
2002-02-13 11:06:12 51°9.165 2°35.862 8 174 8.9 101630 85
2002-02-13 11:06:18 51°9.168 2°35.889 7.8 171 8.9 101630 85
2002-02-13 11:06:22 51°9.169 2°35.906 7.6 174 8.9 101620 85
2002-02-13 11:06:27 51°9.172 2°35.928 7.9 172 8.9 101620 85
2002-02-13 11:06:33 51°9.174 2°35.954 7.3 169 8.9 101630 85
2002-02-13 11:06:37 51°9.176 2°35.971 7.3 168 8.9 101630 85
2002-02-13 11:06:42 51°9.177 2°35.993 8.3 175 8.9 101620 85
2002-02-13 11:06:47 51°9.18 2°36.015 8.8 175 8.9 101620 85
2002-02-13 11:06:53 51°9.182 2°36.041 8.6 176 9 101630 85
2002-02-13 11:06:57 51°9.184 2°36.058 7.7 175 9 101630 85
2002-02-13 11:07:03 51°9.186 2°36.085 8.7 175 9 101620 85
2002-02-13 11:07:08 51°9.188 2°36.106 7.8 176 9 101620 85
2002-02-13 11:07:13 51°9.19 2°36.128 7.5 176 8.9 101620 85
2002-02-13 11:07:17 51°9.191 2°36.145 7.5 171 8.9 101620 85
2002-02-13 11:07:22 51°9.194 2°36.167 8.2 171 8.9 101620 85
2002-02-13 11:07:28 51°9.196 2°36.193 8.3 169 8.9 101620 85
2002-02-13 11:07:33 51°9.198 2°36.215 8.7 173 8.9 101620 85
2002-02-13 11:07:38 51°9.2 2°36.237 8.2 177 8.9 101620 85
2002-02-13 11:07:44 51°9.203 2°36.263 8.2 173 9 101620 85
2002-02-13 11:07:49 51°9.204 2°36.285 8.4 168 9 101620 85
2002-02-13 11:07:52 51°9.206 2°36.298 7.5 173 8.9 101630 85
2002-02-13 11:07:58 51°9.208 2°36.324 7.4 170 8.9 101630 85
2002-02-13 11:08:03 51°9.21 2°36.345 8.1 174 8.9 101620 85
2002-02-13 11:08:08 51°9.212 2°36.367 7.5 171 8.9 101620 85
2002-02-13 11:08:13 51°9.214 2°36.389 8.5 173 9 101620 85
2002-02-13 11:08:18 51°9.216 2°36.411 8.3 172 9 101620 85
2002-02-13 11:08:23 51°9.218 2°36.432 7.3 169 9 101620 85
2002-02-13 11:08:28 51°9.22 2°36.454 7.4 174 9 101620 85
2002-02-13 11:08:32 51°9.222 2°36.471 8.3 174 8.9 101620 85
2002-02-13 11:08:37 51°9.224 2°36.493 8.1 172 8.9 101620 85
2002-02-13 11:08:43 51°9.226 2°36.519 8.5 173 8.9 101620 85
2002-02-13 11:08:48 51°9.228 2°36.54 8.4 173 8.9 101620 85
2002-02-13 11:08:53 51°9.23 2°36.562 7.8 172 9 101620 85
2002-02-13 11:08:57 51°9.231 2°36.579 8 174 9 101620 85
2002-02-13 11:09:03 51°9.234 2°36.605 7.6 172 9 101620 85
2002-02-13 11:09:08 51°9.236 2°36.626 8.4 174 9 101620 85
2002-02-13 11:09:13 51°9.238 2°36.647 7.6 173 9 101620 85
2002-02-13 11:09:18 51°9.24 2°36.669 7.7 169 9 101620 85
2002-02-13 11:09:23 51°9.242 2°36.69 7.9 169 9 101620 85
2002-02-13 11:09:28 51°9.244 2°36.711 7.3 172 9 101620 85
2002-02-13 11:09:33 51°9.246 2°36.733 8 170 8.9 101620 85
2002-02-13 11:09:38 51°9.248 2°36.754 8 169 8.9 101620 85
2002-02-13 11:09:42 51°9.25 2°36.771 7.5 167 8.9 101620 85
2002-02-13 11:09:47 51°9.252 2°36.793 7.6 173 8.9 101620 85
2002-02-13 11:09:53 51°9.255 2°36.818 7 170 8.9 101620 85
2002-02-13 11:09:58 51°9.256 2°36.84 7.8 173 8.9 101620 85
2002-02-13 11:10:03 51°9.258 2°36.861 7.5 174 9 101620 85
2002-02-13 11:10:08 51°9.261 2°36.883 8.2 171 9 101620 85
2002-02-13 11:10:12 51°9.262 2°36.9 7.7 172 9 101610 85
2002-02-13 11:10:17 51°9.264 2°36.922 8.1 174 9 101610 85
2002-02-13 11:10:23 51°9.265 2°36.948 7.5 174 9 101610 85
2002-02-13 11:10:28 51°9.267 2°36.969 7.6 172 9 101610 85
2002-02-13 11:10:33 51°9.269 2°36.991 7.8 174 9 101620 85
2002-02-13 11:10:37 51°9.27 2°37.008 7.9 173 9 101620 85
2002-02-13 11:10:43 51°9.272 2°37.035 7.7 175 9 101620 85
2002-02-13 11:10:48 51°9.274 2°37.056 6.8 173 9 101620 85
2002-02-13 11:10:51 51°9.274 2°37.069 6.9 173 9 101620 85
2002-02-13 11:10:57 51°9.276 2°37.095 7.4 168 9 101620 85
2002-02-13 11:11:03 51°9.278 2°37.121 7.9 170 8.9 101620 85
2002-02-13 11:11:08 51°9.279 2°37.143 8.5 174 8.9 101620 85
2002-02-13 11:11:13 51°9.28 2°37.165 8.2 174 8.9 101610 85
2002-02-13 11:11:18 51°9.282 2°37.187 8.1 176 8.9 101610 85
2002-02-13 11:11:22 51°9.283 2°37.204 7.9 175 9 101610 85
2002-02-13 11:11:27 51°9.284 2°37.226 8 173 9 101610 85
2002-02-13 11:11:32 51°9.286 2°37.247 7.2 172 9 101610 85
2002-02-13 11:11:37 51°9.287 2°37.269 7.2 171 9 101610 85
2002-02-13 11:11:42 51°9.288 2°37.291 7.7 174 9 101610 85
2002-02-13 11:11:48 51°9.291 2°37.317 6.9 174 9 101610 85
2002-02-13 11:11:53 51°9.292 2°37.339 6.9 177 8.9 101610 85
2002-02-13 11:11:58 51°9.294 2°37.361 7.2 176 8.9 101610 85
2002-02-13 11:12:04 51°9.295 2°37.387 7.5 171 9 101620 84
2002-02-13 11:12:08 51°9.297 2°37.404 6.9 172 9 101620 84
2002-02-13 11:12:13 51°9.299 2°37.426 7.6 170 9 101610 85
2002-02-13 11:12:18 51°9.3 2°37.448 7 168 9 101610 85
2002-02-13 11:12:23 51°9.302 2°37.47 6.6 169 8.9 101610 85
2002-02-13 11:12:28 51°9.303 2°37.492 7.7 169 8.9 101610 85
2002-02-13 11:12:34 51°9.305 2°37.518 7.8 171 8.9 101610 85
2002-02-13 11:12:38 51°9.307 2°37.536 8.2 171 8.9 101610 85
2002-02-13 11:12:42 51°9.308 2°37.553 8 172 9 101610 85
2002-02-13 11:12:47 51°9.309 2°37.575 8.4 172 9 101610 85
2002-02-13 11:12:53 51°9.311 2°37.602 7.7 176 9 101610 85
2002-02-13 11:12:58 51°9.313 2°37.623 7.6 171 9 101610 85
2002-02-13 11:13:02 51°9.313 2°37.641 7.5 178 9 101610 85
2002-02-13 11:13:08 51°9.315 2°37.668 7.1 171 9 101610 85
2002-02-13 11:13:13 51°9.316 2°37.69 8 177 9 101610 85
2002-02-13 11:13:18 51°9.317 2°37.712 7 174 9 101610 85
2002-02-13 11:13:23 51°9.317 2°37.734 7.2 173 8.9 101610 85
2002-02-13 11:13:28 51°9.317 2°37.756 7.8 175 8.9 101610 85
2002-02-13 11:13:33 51°9.318 2°37.778 7.3 175 9 101610 85
2002-02-13 11:13:38 51°9.319 2°37.8 7 175 9 101610 85
2002-02-13 11:13:43 51°9.32 2°37.823 6.9 172 9 101610 85
2002-02-13 11:13:48 51°9.32 2°37.845 7.5 174 9 101610 85
2002-02-13 11:13:53 51°9.321 2°37.867 7.5 170 9 101610 85
2002-02-13 11:13:58 51°9.323 2°37.889 7.4 171 9 101610 85
2002-02-13 11:14:02 51°9.324 2°37.907 7.7 174 8.9 101610 85
2002-02-13 11:14:08 51°9.325 2°37.933 7.2 171 8.9 101610 85
2002-02-13 11:14:13 51°9.326 2°37.955 7.5 174 8.9 101610 85
2002-02-13 11:14:18 51°9.327 2°37.977 6.5 167 8.9 101610 85
2002-02-13 11:14:23 51°9.329 2°38 7.4 169 8.9 101610 85
2002-02-13 11:14:28 51°9.33 2°38.022 7 167 8.9 101610 85
2002-02-13 11:14:33 51°9.331 2°38.044 6.9 168 8.9 101610 85
2002-02-13 11:14:37 51°9.332 2°38.062 7.4 166 8.9 101610 85
2002-02-13 11:14:43 51°9.333 2°38.088 7.6 167 8.9 101610 85
2002-02-13 11:14:48 51°9.335 2°38.111 7.2 168 8.9 101610 85
2002-02-13 11:14:53 51°9.336 2°38.133 6.5 168 9 101610 85
2002-02-13 11:14:58 51°9.337 2°38.155 6.6 164 9 101610 85
2002-02-13 11:15:03 51°9.338 2°38.178 7.5 167 9 101610 85
2002-02-13 11:15:08 51°9.338 2°38.2 7.8 170 9 101610 85
2002-02-13 11:15:13 51°9.338 2°38.222 7.7 170 9 101610 85
2002-02-13 11:15:17 51°9.338 2°38.24 6.7 173 9 101610 85
2002-02-13 11:15:23 51°9.337 2°38.267 6.8 171 9 101610 85
2002-02-13 11:15:28 51°9.336 2°38.289 7 174 9 101610 85
2002-02-13 11:15:33 51°9.336 2°38.311 6.3 168 9 101610 85
2002-02-13 11:15:37 51°9.335 2°38.329 7 173 9 101610 85
2002-02-13 11:15:43 51°9.334 2°38.356 6.1 169 9 101610 85
2002-02-13 11:15:48 51°9.333 2°38.378 7.2 169 9 101610 85
2002-02-13 11:15:53 51°9.333 2°38.401 6.5 168 9 101610 85
2002-02-13 11:15:57 51°9.333 2°38.419 7.3 168 9 101610 85
2002-02-13 11:16:02 51°9.333 2°38.441 6.7 170 9 101610 85
2002-02-13 11:16:08 51°9.333 2°38.468 7.1 171 9 101610 85
2002-02-13 11:16:12 51°9.334 2°38.486 7.3 172 9 101610 85
2002-02-13 11:16:18 51°9.334 2°38.511 6.6 171 9 101610 85
2002-02-13 11:16:22 51°9.335 2°38.528 6.7 170 9 101610 85
2002-02-13 11:16:28 51°9.336 2°38.55 6.6 171 9 101610 85
2002-02-13 11:16:33 51°9.338 2°38.568 6.4 177 9 101610 85
2002-02-13 11:16:38 51°9.339 2°38.585 6.2 174 9 101610 85
2002-02-13 11:16:43 51°9.341 2°38.6 6 176 9 101610 85
2002-02-13 11:16:48 51°9.343 2°38.613 5.5 172 9 101610 85
2002-02-13 11:16:53 51°9.346 2°38.624 5.3 173 9 101610 85
2002-02-13 11:16:58 51°9.348 2°38.633 4.7 170 9 101610 85
2002-02-13 11:17:04 51°9.35 2°38.642 4.4 163 9 101610 85
2002-02-13 11:17:08 51°9.352 2°38.645 4.2 163 9 101610 85
2002-02-13 11:17:14 51°9.353 2°38.65 3.9 161 9 101620 85
2002-02-13 11:17:18 51°9.354 2°38.654 3.6 151 9 101620 85
2002-02-13 11:17:23 51°9.355 2°38.657 4.6 148 9 101610 85
2002-02-13 11:17:28 51°9.356 2°38.661 4.6 145 9 101610 85
2002-02-13 11:17:33 51°9.357 2°38.665 4.7 147 9 101620 85
2002-02-13 11:17:37 51°9.358 2°38.667 4.9 146 9 101620 85
2002-02-13 11:17:42 51°9.359 2°38.671 4.4 144 9 101610 85
2002-02-13 11:17:48 51°9.361 2°38.675 5.1 147 9 101610 85
2002-02-13 11:17:52 51°9.362 2°38.678 5.1 149 9 101620 85
2002-02-13 11:17:58 51°9.365 2°38.682 4.6 147 9 101620 85
2002-02-13 11:18:03 51°9.366 2°38.686 4.6 148 9 101620 85
2002-02-13 11:18:08 51°9.368 2°38.689 5 146 9 101620 85
2002-02-13 11:18:13 51°9.37 2°38.693 5.3 146 9 101620 85
2002-02-13 11:18:18 51°9.372 2°38.697 5.2 151 9 101620 85
2002-02-13 11:18:23 51°9.374 2°38.7 5.7 150 9 101620 85
2002-02-13 11:18:27 51°9.375 2°38.703 4.8 149 9 101620 85
2002-02-13 11:18:32 51°9.377 2°38.707 4.9 152 9 101620 85
2002-02-13 11:18:38 51°9.379 2°38.712 4.8 153 9 101620 85
2002-02-13 11:18:43 51°9.381 2°38.715 5.1 159 9 101620 85
2002-02-13 11:18:48 51°9.383 2°38.719 5.2 156 9 101620 85
2002-02-13 11:18:53 51°9.384 2°38.723 5.2 157 9 101620 85
2002-02-13 11:18:58 51°9.386 2°38.727 4.9 159 9 101620 85
2002-02-13 11:19:02 51°9.388 2°38.731 5.1 161 9 101620 85
2002-02-13 11:19:08 51°9.39 2°38.736 5.5 164 9 101620 85
2002-02-13 11:19:12 51°9.392 2°38.739 5.4 165 9 101620 85
2002-02-13 11:19:17 51°9.393 2°38.744 4.9 171 9 101620 85
2002-02-13 11:19:24 51°9.396 2°38.751 5.1 166 9 101620 85
2002-02-13 11:19:28 51°9.397 2°38.754 5.2 176 9 101620 85
2002-02-13 11:19:33 51°9.399 2°38.759 5.3 173 9 101610 85
2002-02-13 11:19:37 51°9.4 2°38.763 4.8 178 9 101610 85
2002-02-13 11:19:42 51°9.401 2°38.768 4.6 179 9 101620 85
2002-02-13 11:19:48 51°9.402 2°38.775 4.9 183 9 101620 85
2002-02-13 11:19:54 51°9.404 2°38.781 4.4 181 9 101620 85
2002-02-13 11:19:58 51°9.405 2°38.785 4.7 181 9 101620 85
2002-02-13 11:20:02 51°9.406 2°38.79 5.2 187 9 101620 85
2002-02-13 11:20:08 51°9.407 2°38.797 5 189 9 101620 85
2002-02-13 11:20:13 51°9.408 2°38.802 5.1 191 9 101620 85
2002-02-13 11:20:18 51°9.408 2°38.808 5.4 190 9 101620 85
2002-02-13 11:20:22 51°9.409 2°38.814 5.6 198 9 101620 85
2002-02-13 11:20:28 51°9.409 2°38.821 6.1 201 9 101620 85
2002-02-13 11:20:33 51°9.41 2°38.828 5.3 202 9.1 101620 85
2002-02-13 11:20:38 51°9.41 2°38.835 5.4 203 9.1 101620 85
2002-02-13 11:20:42 51°9.41 2°38.841 5.5 205 9.1 101620 85
2002-02-13 11:20:48 51°9.41 2°38.849 4.4 208 9.1 101620 85
2002-02-13 11:20:53 51°9.409 2°38.856 4.6 208 9 101620 85
2002-02-13 11:20:58 51°9.409 2°38.863 4 213 9 101620 85
2002-02-13 11:21:03 51°9.408 2°38.87 4.6 207 9 101610 85
2002-02-13 11:21:08 51°9.408 2°38.877 2.9 213 9 101610 85
2002-02-13 11:21:13 51°9.407 2°38.883 3.6 212 9 101620 85
2002-02-13 11:21:18 51°9.407 2°38.89 4 208 9 101620 85
2002-02-13 11:21:23 51°9.406 2°38.897 3.2 208 9 101620 85
2002-02-13 11:21:28 51°9.405 2°38.903 2.9 213 9 101620 85
2002-02-13 11:21:33 51°9.404 2°38.91 3.1 207 9 101620 85
2002-02-13 11:21:38 51°9.403 2°38.916 3.2 211 9 101620 85
2002-02-13 11:21:43 51°9.402 2°38.923 3.4 133 9 101620 85
2002-02-13 11:21:47 51°9.402 2°38.928 3.9 210 9 101620 85
2002-02-13 11:21:52 51°9.401 2°38.934 4.3 204 9 101620 85
2002-02-13 11:21:58 51°9.4 2°38.942 4.2 209 9 101620 85
2002-02-13 11:22:02 51°9.399 2°38.947 3.3 211 9 101620 85
2002-02-13 11:22:08 51°9.398 2°38.954 3.2 209 9 101620 85
2002-02-13 11:22:13 51°9.397 2°38.961 2.9 202 9 101620 85
2002-02-13 11:22:18 51°9.396 2°38.967 3 204 9 101620 85
2002-02-13 11:22:23 51°9.395 2°38.973 2.6 203 9 101620 85
2002-02-13 11:22:28 51°9.394 2°38.979 1.2 227 9 101620 85
2002-02-13 11:22:33 51°9.393 2°38.985 1.6 226 9 101620 85
2002-02-13 11:22:38 51°9.392 2°38.991 0.6 229 9 101620 85
2002-02-13 11:22:43 51°9.391 2°38.996 0.5 230 9 101620 85
2002-02-13 11:22:48 51°9.39 2°39.002 0.8 234 9 101620 85
2002-02-13 11:22:53 51°9.389 2°39.007 1 315 9 101620 85
2002-02-13 11:22:58 51°9.387 2°39.013 1 220 9 101620 85
2002-02-13 11:23:02 51°9.386 2°39.018 0.4 240 9 101620 85
2002-02-13 11:23:08 51°9.384 2°39.024 0.8 243 9 101620 85
2002-02-13 11:23:13 51°9.382 2°39.03 1.2 254 9 101620 85
2002-02-13 11:23:17 51°9.381 2°39.034 3.3 253 9 101620 85
2002-02-13 11:23:23 51°9.378 2°39.04 3.2 259 9 101620 85
2002-02-13 11:23:28 51°9.375 2°39.045 3.1 272 9 101620 85
2002-02-13 11:23:32 51°9.373 2°39.048 3.1 272 9 101620 85
2002-02-13 11:23:38 51°9.37 2°39.054 3.4 281 9 101620 85
2002-02-13 11:23:42 51°9.368 2°39.057 3.1 281 9 101620 85
2002-02-13 11:23:47 51°9.365 2°39.061 3.3 284 9 101620 85
2002-02-13 11:23:53 51°9.361 2°39.066 3.1 285 9 101620 85
2002-02-13 11:23:58 51°9.357 2°39.069 2.9 289 9 101620 85
2002-02-13 11:24:03 51°9.353 2°39.072 2.7 288 9 101620 85
2002-02-13 11:24:08 51°9.348 2°39.075 2.5 289 9 101620 85
2002-02-13 11:24:12 51°9.344 2°39.078 2.5 291 9 101620 85
2002-02-13 11:24:17 51°9.339 2°39.08 2.2 290 9 101620 85
2002-02-13 11:24:23 51°9.333 2°39.083 2.2 297 9 101620 85
2002-02-13 11:24:28 51°9.327 2°39.085 2 314 9 101620 85
2002-02-13 11:24:33 51°9.322 2°39.086 1.6 315 9 101620 85
2002-02-13 11:24:37 51°9.317 2°39.087 1.2 332 9 101620 85
2002-02-13 11:24:41 51°9.313 2°39.087 0.9 20 9 101620 85
2002-02-13 11:24:47 51°9.306 2°39.087 1.8 321 9 101620 85
2002-02-13 11:24:52 51°9.3 2°39.087 1.5 322 9 101620 85
2002-02-13 11:24:57 51°9.294 2°39.086 1.8 336 9 101620 85
2002-02-13 11:25:03 51°9.287 2°39.084 1.7 344 9 101620 85
2002-02-13 11:25:08 51°9.281 2°39.082 1.5 344 9 101620 85
2002-02-13 11:25:13 51°9.275 2°39.081 1.7 1 9 101620 85
2002-02-13 11:25:18 51°9.27 2°39.078 1.5 9 9 101620 85
2002-02-13 11:25:22 51°9.265 2°39.075 1.5 5 9 101620 85
2002-02-13 11:25:28 51°9.258 2°39.071 1.8 10 9 101620 85
2002-02-13 11:25:33 51°9.253 2°39.068 2 14 9 101620 85
2002-02-13 11:25:38 51°9.247 2°39.063 1.9 26 9 101620 85
2002-02-13 11:25:43 51°9.242 2°39.059 2.3 37 9 101620 85
2002-02-13 11:25:48 51°9.237 2°39.054 2.5 34 9 101620 85
2002-02-13 11:25:53 51°9.233 2°39.048 2.8 36 9 101620 85
2002-02-13 11:25:58 51°9.229 2°39.044 3 29 9 101620 85
2002-02-13 11:26:03 51°9.226 2°39.039 2.9 31 9 101620 85
2002-02-13 11:26:08 51°9.223 2°39.034 2.8 28 9 101620 85
2002-02-13 11:26:13 51°9.22 2°39.03 2.6 38 9 101620 85
2002-02-13 11:26:18 51°9.217 2°39.025 2.8 25 9 101620 85
2002-02-13 11:26:22 51°9.216 2°39.022 2.9 33 9 101620 85
2002-02-13 11:26:28 51°9.213 2°39.017 3.1 39 9 101620 85
2002-02-13 11:26:32 51°9.212 2°39.013 2.8 34 9 101620 85
2002-02-13 11:26:38 51°9.21 2°39.009 3.4 38 9 101620 85
2002-02-13 11:26:42 51°9.209 2°39.006 3.2 42 9 101620 85
2002-02-13 11:26:48 51°9.207 2°39.002 3.3 39 9 101620 85
2002-02-13 11:26:53 51°9.206 2°38.999 3.4 40 9.1 101620 85
2002-02-13 11:26:58 51°9.205 2°38.995 3.4 46 9.1 101620 85
2002-02-13 11:27:02 51°9.204 2°38.993 3.2 316 9 101620 85